createdAt,value
2023-04-13T00:02:20.743Z,5.87
2023-04-13T00:04:47.123Z,5.81
2023-04-13T00:07:13.444Z,5.80
2023-04-13T00:09:39.769Z,5.95
2023-04-13T00:12:06.079Z,5.90
2023-04-13T00:14:32.381Z,5.86
2023-04-13T00:16:58.727Z,5.65
2023-04-13T00:19:25.078Z,5.50
2023-04-13T00:21:51.394Z,5.43
2023-04-13T00:24:17.723Z,5.53
2023-04-13T00:26:44.022Z,5.55
2023-04-13T00:29:10.315Z,5.53
2023-04-13T00:31:36.625Z,5.42
2023-04-13T00:34:02.951Z,5.32
2023-04-13T00:36:29.270Z,5.30
2023-04-13T00:38:55.564Z,5.55
2023-04-13T00:41:21.881Z,5.52
2023-04-13T00:43:48.187Z,5.43
2023-04-13T00:46:14.523Z,5.55
2023-04-13T00:48:40.868Z,5.76
2023-04-13T00:51:07.173Z,5.77
2023-04-13T00:53:33.470Z,5.71
2023-04-13T00:55:59.794Z,5.82
2023-04-13T00:58:26.117Z,5.62
2023-04-13T01:00:52.423Z,5.54
2023-04-13T01:03:18.826Z,5.79
2023-04-13T01:05:45.228Z,5.66
2023-04-13T01:08:11.548Z,5.54
2023-04-13T01:10:37.854Z,5.65
2023-04-13T01:13:04.194Z,5.75
2023-04-13T01:15:30.515Z,5.40
2023-04-13T01:17:56.904Z,5.24
2023-04-13T01:20:23.265Z,5.40
2023-04-13T01:22:49.611Z,5.29
2023-04-13T01:25:15.949Z,5.56
2023-04-13T01:27:42.267Z,5.58
2023-04-13T01:30:08.581Z,5.55
2023-04-13T01:32:34.964Z,5.48
2023-04-13T01:35:01.299Z,5.52
2023-04-13T01:37:27.603Z,5.52
2023-04-13T01:39:53.923Z,5.47
2023-04-13T01:42:20.227Z,5.68
2023-04-13T01:44:46.521Z,5.47
2023-04-13T01:47:12.853Z,5.47
2023-04-13T01:49:39.185Z,5.61
2023-04-13T01:52:05.502Z,5.69
2023-04-13T01:54:31.829Z,5.69
2023-04-13T01:56:58.149Z,5.48
2023-04-13T01:59:24.462Z,5.43
2023-04-13T02:01:50.792Z,5.44
2023-04-13T02:04:17.298Z,5.45
2023-04-13T02:06:43.784Z,5.48
2023-04-13T02:09:10.119Z,5.53
2023-04-13T02:11:36.431Z,5.50
2023-04-13T02:14:02.755Z,5.47
2023-04-13T02:16:29.076Z,5.56
2023-04-13T02:18:55.384Z,5.58
2023-04-13T02:21:21.681Z,5.68
2023-04-13T02:23:48.000Z,5.61
2023-04-13T02:26:14.318Z,5.56
2023-04-13T02:28:40.617Z,5.53
2023-04-13T02:31:06.937Z,5.50
2023-04-13T02:33:33.250Z,5.40
2023-04-13T02:35:59.612Z,5.36
2023-04-13T02:38:25.930Z,5.32
2023-04-13T02:40:52.245Z,5.20
2023-04-13T02:43:18.547Z,5.20
2023-04-13T02:45:44.897Z,4.94
2023-04-13T02:48:11.224Z,5.05
2023-04-13T02:50:37.540Z,4.96
2023-04-13T02:53:03.841Z,4.99
2023-04-13T02:55:30.153Z,5.01
2023-04-13T02:57:56.461Z,5.02
2023-04-13T03:00:22.764Z,5.00
2023-04-13T03:02:49.270Z,5.06
2023-04-13T03:05:15.834Z,4.98
2023-04-13T03:07:42.131Z,5.03
2023-04-13T03:10:08.431Z,4.76
2023-04-13T03:12:34.729Z,4.59
2023-04-13T03:15:01.041Z,4.46
2023-04-13T03:17:27.371Z,4.61
2023-04-13T03:19:53.667Z,4.52
2023-04-13T03:22:19.992Z,4.58
2023-04-13T03:24:46.332Z,4.49
2023-04-13T03:27:12.650Z,4.54
2023-04-13T03:29:38.970Z,4.56
2023-04-13T03:32:05.280Z,4.55
2023-04-13T03:34:31.577Z,4.57
2023-04-13T03:36:57.883Z,4.20
2023-04-13T03:39:24.188Z,4.34
2023-04-13T03:41:50.512Z,4.47
2023-04-13T03:44:16.834Z,4.45
2023-04-13T03:46:43.183Z,4.55
2023-04-13T03:49:09.534Z,4.71
2023-04-13T03:51:35.849Z,4.74
2023-04-13T03:54:02.208Z,4.72
2023-04-13T03:56:28.536Z,4.77
2023-04-13T03:58:54.856Z,4.78
2023-04-13T04:01:21.169Z,4.74
2023-04-13T04:03:47.588Z,4.91
2023-04-13T04:06:13.979Z,4.96
2023-04-13T04:08:40.292Z,4.92
2023-04-13T04:11:06.615Z,4.88
2023-04-13T04:13:32.919Z,4.86
2023-04-13T04:15:59.326Z,4.92
2023-04-13T04:18:25.679Z,5.07
2023-04-13T04:20:51.994Z,5.11
2023-04-13T04:23:19.903Z,4.84
2023-04-13T04:25:46.360Z,4.71
2023-04-13T04:28:12.658Z,4.55
2023-04-13T04:30:38.988Z,4.50
2023-04-13T04:33:05.342Z,4.53
2023-04-13T04:35:31.669Z,4.88
2023-04-13T04:37:57.972Z,4.87
2023-04-13T04:40:24.269Z,4.63
2023-04-13T04:42:50.569Z,4.83
2023-04-13T04:45:16.906Z,4.78
2023-04-13T04:47:43.338Z,4.57
2023-04-13T04:50:09.703Z,4.50
2023-04-13T04:52:36.015Z,4.44
2023-04-13T04:55:02.359Z,4.54
2023-04-13T04:57:29.847Z,4.86
2023-04-13T04:59:56.207Z,4.56
2023-04-13T05:02:23.388Z,4.61
2023-04-13T05:04:49.907Z,4.72
2023-04-13T05:07:16.214Z,4.42
2023-04-13T05:09:42.513Z,4.52
2023-04-13T05:12:08.821Z,4.35
2023-04-13T05:14:35.131Z,4.27
2023-04-13T05:17:01.499Z,4.12
2023-04-13T05:19:27.798Z,4.18
2023-04-13T05:21:54.105Z,4.23
2023-04-13T05:24:20.402Z,4.09
2023-04-13T05:26:46.733Z,4.36
2023-04-13T05:29:13.048Z,4.30
2023-04-13T05:31:39.410Z,4.43
2023-04-13T05:34:05.772Z,4.42
2023-04-13T05:36:32.099Z,4.44
2023-04-13T05:38:58.594Z,4.59
2023-04-13T05:41:25.042Z,4.60
2023-04-13T05:43:51.344Z,4.68
2023-04-13T05:46:17.684Z,4.86
2023-04-13T05:48:44.044Z,4.97
2023-04-13T05:51:10.341Z,5.02
2023-04-13T05:53:36.639Z,5.02
2023-04-13T05:56:02.964Z,5.18
2023-04-13T05:58:29.292Z,5.17
2023-04-13T06:00:55.607Z,5.16
2023-04-13T06:03:22.177Z,5.14
2023-04-13T06:05:48.634Z,5.13
2023-04-13T06:08:14.968Z,5.10
2023-04-13T06:10:41.323Z,5.15
2023-04-13T06:13:07.650Z,5.13
2023-04-13T06:15:33.958Z,5.24
2023-04-13T06:18:00.350Z,5.28
2023-04-13T06:20:26.715Z,5.31
2023-04-13T06:22:53.020Z,5.41
2023-04-13T06:25:19.329Z,5.48
2023-04-13T06:27:45.672Z,5.50
2023-04-13T06:30:12.112Z,5.67
2023-04-13T06:32:38.531Z,5.75
2023-04-13T06:35:04.923Z,5.83
2023-04-13T06:37:31.248Z,5.62
2023-04-13T06:39:57.570Z,5.32
2023-04-13T06:42:23.882Z,5.29
2023-04-13T06:44:50.226Z,5.34
2023-04-13T06:47:16.573Z,5.42
2023-04-13T06:49:42.913Z,5.42
2023-04-13T06:52:09.213Z,5.49
2023-04-13T06:54:35.510Z,5.59
2023-04-13T06:57:01.863Z,5.51
2023-04-13T06:59:28.242Z,5.53
2023-04-13T07:01:54.660Z,5.57
2023-04-13T07:04:21.120Z,5.70
2023-04-13T07:06:47.453Z,5.75
2023-04-13T07:09:13.777Z,5.72
2023-04-13T07:11:40.089Z,5.85
2023-04-13T07:14:06.402Z,6.10
2023-04-13T07:16:32.715Z,6.18
2023-04-13T07:18:59.288Z,6.08
2023-04-13T07:21:25.737Z,6.07
2023-04-13T07:23:52.055Z,6.06
2023-04-13T07:26:18.388Z,5.95
2023-04-13T07:28:44.708Z,5.59
2023-04-13T07:31:11.024Z,5.83
2023-04-13T07:33:37.349Z,5.97
2023-04-13T07:36:03.680Z,5.98
2023-04-13T07:38:29.984Z,5.76
2023-04-13T07:40:56.293Z,5.97
2023-04-13T07:43:22.626Z,5.99
2023-04-13T07:45:48.944Z,6.04
2023-04-13T07:48:15.250Z,6.02
2023-04-13T07:50:41.570Z,5.95
2023-04-13T07:53:07.905Z,6.09
2023-04-13T07:55:34.199Z,6.03
2023-04-13T07:58:00.582Z,6.14
2023-04-13T08:00:26.917Z,6.30
2023-04-13T08:02:53.311Z,6.30
2023-04-13T08:05:19.891Z,6.27
2023-04-13T08:07:46.619Z,6.12
2023-04-13T08:10:13.015Z,6.16
2023-04-13T08:12:39.339Z,6.29
2023-04-13T08:15:05.672Z,6.12
2023-04-13T08:17:31.990Z,6.32
2023-04-13T08:19:58.383Z,6.58
2023-04-13T08:22:24.706Z,6.72
2023-04-13T08:24:51.021Z,6.84
2023-04-13T08:27:17.342Z,6.91
2023-04-13T08:29:43.632Z,7.03
2023-04-13T08:32:09.993Z,7.13
2023-04-13T08:34:36.356Z,7.02
2023-04-13T08:37:02.682Z,6.80
2023-04-13T08:39:29.018Z,6.89
2023-04-13T08:41:55.337Z,6.74
2023-04-13T08:44:21.661Z,6.31
2023-04-13T08:46:48.328Z,5.57
2023-04-13T08:49:15.167Z,5.66
2023-04-13T08:51:41.528Z,5.57
2023-04-13T08:54:07.847Z,5.41
2023-04-13T08:56:45.310Z,5.45
2023-04-13T08:59:13.183Z,5.17
2023-04-13T09:01:39.634Z,5.25
2023-04-13T09:04:06.197Z,5.58
2023-04-13T09:06:32.621Z,5.82
2023-04-13T09:08:59.118Z,6.05
2023-04-13T09:11:25.673Z,6.24
2023-04-13T09:13:51.983Z,6.47
2023-04-13T09:16:18.331Z,6.56
2023-04-13T09:18:44.673Z,6.61
2023-04-13T09:21:10.996Z,6.72
2023-04-13T09:23:37.312Z,6.99
2023-04-13T09:26:03.615Z,7.14
2023-04-13T09:28:29.943Z,7.36
2023-04-13T09:30:56.311Z,7.33
2023-04-13T09:33:22.656Z,7.24
2023-04-13T09:35:48.983Z,7.40
2023-04-13T09:38:15.347Z,7.49
2023-04-13T09:40:41.764Z,7.41
2023-04-13T09:43:08.176Z,7.18
2023-04-13T09:45:34.556Z,5.30
2023-04-13T09:48:00.937Z,4.51
2023-04-13T09:50:27.289Z,3.44
2023-04-13T09:52:53.617Z,3.29
2023-04-13T09:55:19.963Z,2.98
2023-04-13T09:57:46.277Z,3.19
2023-04-13T10:00:12.597Z,3.25
2023-04-13T10:02:39.056Z,3.44
2023-04-13T10:05:05.579Z,3.61
2023-04-13T10:07:31.919Z,3.82
2023-04-13T10:09:58.293Z,3.98
2023-04-13T10:12:24.620Z,4.24
2023-04-13T10:14:50.936Z,4.37
2023-04-13T10:17:17.267Z,4.47
2023-04-13T10:19:43.598Z,4.77
2023-04-13T10:22:09.917Z,4.89
2023-04-13T10:24:36.253Z,5.02
2023-04-13T10:27:02.577Z,4.99
2023-04-13T10:29:28.890Z,5.15
2023-04-13T10:31:56.169Z,5.20
2023-04-13T10:34:22.591Z,5.34
2023-04-13T10:36:48.890Z,5.28
2023-04-13T10:39:15.220Z,5.26
2023-04-13T10:41:41.519Z,5.16
2023-04-13T10:44:07.922Z,5.38
2023-04-13T10:46:34.352Z,5.66
2023-04-13T10:49:00.832Z,5.82
2023-04-13T10:51:27.257Z,6.11
2023-04-13T10:53:53.558Z,6.23
2023-04-13T10:56:19.874Z,6.38
2023-04-13T10:58:46.285Z,6.51
2023-04-13T11:01:12.606Z,6.60
2023-04-13T11:03:43.103Z,6.78
2023-04-13T11:06:13.620Z,6.80
2023-04-13T11:08:39.932Z,6.79
2023-04-13T11:11:06.237Z,6.75
2023-04-13T11:13:32.546Z,6.75
2023-04-13T11:15:58.846Z,6.81
2023-04-13T11:18:25.172Z,7.02
2023-04-13T11:20:51.471Z,7.21
2023-04-13T11:23:17.789Z,7.40
2023-04-13T11:25:44.125Z,7.50
2023-04-13T11:28:10.468Z,7.67
2023-04-13T11:30:36.929Z,7.73
2023-04-13T11:33:03.329Z,7.98
2023-04-13T11:35:29.674Z,8.02
2023-04-13T11:37:56.058Z,7.99
2023-04-13T11:40:22.491Z,8.00
2023-04-13T11:42:48.801Z,8.08
2023-04-13T11:45:15.117Z,8.15
2023-04-13T11:47:41.440Z,8.29
2023-04-13T11:50:07.788Z,8.46
2023-04-13T11:52:34.117Z,8.52
2023-04-13T11:55:10.722Z,8.52
2023-04-13T11:57:45.739Z,8.46
2023-04-13T12:00:12.147Z,8.03
2023-04-13T12:02:51.492Z,7.88
2023-04-13T12:05:24.936Z,7.63
2023-04-13T12:07:52.222Z,7.74
2023-04-13T12:10:23.325Z,7.89
2023-04-13T12:12:56.443Z,8.00
2023-04-13T12:15:40.124Z,8.08
2023-04-13T12:18:15.358Z,8.23
2023-04-13T12:20:43.968Z,8.47
2023-04-13T12:23:19.034Z,8.18
2023-04-13T12:25:49.819Z,8.40
2023-04-13T12:28:16.212Z,8.48
2023-04-13T12:30:42.513Z,8.47
2023-04-13T12:33:08.958Z,8.48
2023-04-13T12:35:35.368Z,7.83
2023-04-13T12:38:01.668Z,8.06
2023-04-13T12:40:27.988Z,8.13
2023-04-13T12:42:54.301Z,8.29
2023-04-13T12:45:20.613Z,8.37
2023-04-13T12:47:47.026Z,8.75
2023-04-13T12:50:13.371Z,9.08
2023-04-13T12:52:39.701Z,9.28
2023-04-13T12:55:06.023Z,9.29
2023-04-13T12:57:32.410Z,9.42
2023-04-13T12:59:58.840Z,9.56
2023-04-13T13:02:25.220Z,9.57
2023-04-13T13:04:51.835Z,9.48
2023-04-13T13:07:18.278Z,9.48
2023-04-13T13:09:44.582Z,9.40
2023-04-13T13:12:10.883Z,9.48
2023-04-13T13:14:37.191Z,9.30
2023-04-13T13:17:03.530Z,9.02
2023-04-13T13:19:29.851Z,8.81
2023-04-13T13:21:56.157Z,8.80
2023-04-13T13:24:22.468Z,8.64
2023-04-13T13:27:14.286Z,8.65
2023-04-13T13:29:35.042Z,8.66
2023-04-13T13:32:01.411Z,8.72
2023-04-13T13:34:27.802Z,8.90
2023-04-13T13:36:54.110Z,9.18
2023-04-13T13:39:20.407Z,9.29
2023-04-13T13:41:46.733Z,9.52
2023-04-13T13:44:13.100Z,9.82
2023-04-13T13:46:39.451Z,9.84
2023-04-13T13:49:05.813Z,9.82
2023-04-13T13:51:32.140Z,9.60
2023-04-13T13:53:58.475Z,9.52
2023-04-13T13:56:24.830Z,9.54
2023-04-13T13:58:51.141Z,9.56
2023-04-13T14:01:17.530Z,9.72
2023-04-13T14:03:43.968Z,9.90
2023-04-13T14:06:10.348Z,9.88
2023-04-13T14:08:36.689Z,9.63
2023-04-13T14:11:03.008Z,9.54
2023-04-13T14:13:29.349Z,9.74
2023-04-13T14:15:55.695Z,9.71
2023-04-13T14:18:22.068Z,9.81
2023-04-13T14:20:48.396Z,9.89
2023-04-13T14:23:14.751Z,9.96
2023-04-13T14:25:41.323Z,10.15
2023-04-13T14:28:07.741Z,10.20
2023-04-13T14:30:34.082Z,10.32
2023-04-13T14:33:00.436Z,10.45
2023-04-13T14:35:26.769Z,10.71
2023-04-13T14:37:53.162Z,10.94
2023-04-13T14:40:19.491Z,10.99
2023-04-13T14:42:45.830Z,10.97
2023-04-13T14:45:12.186Z,11.13
2023-04-13T14:47:38.532Z,11.19
2023-04-13T14:50:05.124Z,11.26
2023-04-13T14:52:31.472Z,11.35
2023-04-13T14:54:57.797Z,11.39
2023-04-13T14:57:24.118Z,11.31
2023-04-13T14:59:50.499Z,11.10
2023-04-13T15:02:16.916Z,11.22
2023-04-13T15:04:43.566Z,11.15
2023-04-13T15:07:09.960Z,11.07
2023-04-13T15:09:36.296Z,10.85
2023-04-13T15:12:02.630Z,10.98
2023-04-13T15:14:28.967Z,10.83
2023-04-13T15:16:55.318Z,11.37
2023-04-13T15:19:21.765Z,12.03
2023-04-13T15:21:48.091Z,12.69
2023-04-13T15:24:14.428Z,12.74
2023-04-13T15:26:40.717Z,12.63
2023-04-13T15:29:07.061Z,12.65
2023-04-13T15:31:33.424Z,12.11
2023-04-13T15:33:59.781Z,11.82
2023-04-13T15:36:26.097Z,11.80
2023-04-13T15:38:52.419Z,11.59
2023-04-13T15:41:18.719Z,11.43
2023-04-13T15:43:45.028Z,11.25
2023-04-13T15:46:11.467Z,11.30
2023-04-13T15:48:37.809Z,11.60
2023-04-13T15:51:04.116Z,11.90
2023-04-13T15:53:30.429Z,12.09
2023-04-13T15:55:56.766Z,12.12
2023-04-13T15:58:23.087Z,12.05
2023-04-13T16:00:49.382Z,11.97
2023-04-13T16:03:15.813Z,11.94
2023-04-13T16:05:42.213Z,11.40
2023-04-13T16:08:08.532Z,11.32
2023-04-13T16:10:34.857Z,10.87
2023-04-13T16:13:01.153Z,10.87
2023-04-13T16:15:27.524Z,10.85
2023-04-13T16:17:53.913Z,10.75
2023-04-13T16:20:20.262Z,10.66
2023-04-13T16:22:46.577Z,10.49
2023-04-13T16:25:12.898Z,10.11
2023-04-13T16:27:39.200Z,9.98
2023-04-13T16:30:05.500Z,9.49
2023-04-13T16:32:31.855Z,9.54
2023-04-13T16:34:58.199Z,9.58
2023-04-13T16:37:24.515Z,9.78
2023-04-13T16:39:50.841Z,9.63
2023-04-13T16:42:17.173Z,9.56
2023-04-13T16:44:43.476Z,9.56
2023-04-13T16:47:09.870Z,9.13
2023-04-13T16:49:36.260Z,8.87
2023-04-13T16:52:02.577Z,8.43
2023-04-13T16:54:28.884Z,7.90
2023-04-13T16:56:55.178Z,7.91
2023-04-13T16:59:21.486Z,7.77
2023-04-13T17:01:47.862Z,7.91
2023-04-13T17:04:14.276Z,8.00
2023-04-13T17:06:40.641Z,7.97
2023-04-13T17:09:06.952Z,7.68
2023-04-13T17:11:33.274Z,7.66
2023-04-13T17:13:59.609Z,7.57
2023-04-13T17:16:25.972Z,7.41
2023-04-13T17:18:52.273Z,7.45
2023-04-13T17:21:18.584Z,7.38
2023-04-13T17:23:44.897Z,7.44
2023-04-13T17:26:11.229Z,7.46
2023-04-13T17:28:37.560Z,7.60
2023-04-13T17:31:03.854Z,7.57
2023-04-13T17:33:30.178Z,7.59
2023-04-13T17:35:56.488Z,7.67
2023-04-13T17:38:22.807Z,7.82
2023-04-13T17:40:49.107Z,7.80
2023-04-13T17:43:15.442Z,7.93
2023-04-13T17:45:41.747Z,7.95
2023-04-13T17:48:08.154Z,7.85
2023-04-13T17:50:34.493Z,7.91
2023-04-13T17:53:00.807Z,7.93
2023-04-13T17:55:27.118Z,8.02
2023-04-13T17:57:53.435Z,8.14
2023-04-13T18:00:19.756Z,8.13
2023-04-13T18:02:46.140Z,8.17
2023-04-13T18:05:12.537Z,8.23
2023-04-13T18:07:38.852Z,8.10
2023-04-13T18:10:05.182Z,8.00
2023-04-13T18:12:31.534Z,7.91
2023-04-13T18:14:57.841Z,7.80
2023-04-13T18:17:24.193Z,7.80
2023-04-13T18:19:50.525Z,7.73
2023-04-13T18:22:16.832Z,7.60
2023-04-13T18:24:43.164Z,7.48
2023-04-13T18:27:09.491Z,7.40
2023-04-13T18:29:35.825Z,7.21
2023-04-13T18:32:03.241Z,7.10
2023-04-13T18:34:29.553Z,7.05
2023-04-13T18:36:55.860Z,7.04
2023-04-13T18:39:22.186Z,6.96
2023-04-13T18:41:48.502Z,6.90
2023-04-13T18:44:14.851Z,6.86
2023-04-13T18:46:41.247Z,6.81
2023-04-13T18:49:07.641Z,6.73
2023-04-13T18:51:33.958Z,6.67
2023-04-13T18:54:00.471Z,6.67
2023-04-13T18:56:26.969Z,6.64
2023-04-13T18:58:53.293Z,6.61
2023-04-13T19:01:19.787Z,6.54
2023-04-13T19:03:46.472Z,6.49
2023-04-13T19:06:12.978Z,6.40
2023-04-13T19:08:39.294Z,6.41
2023-04-13T19:11:05.617Z,6.48
2023-04-13T19:13:31.922Z,6.56
2023-04-13T19:15:58.234Z,6.65
2023-04-13T19:18:24.575Z,6.65
2023-04-13T19:20:50.889Z,6.67
2023-04-13T19:23:17.208Z,6.62
2023-04-13T19:25:43.520Z,6.56
2023-04-13T19:28:09.838Z,6.53
2023-04-13T19:30:36.144Z,6.44
2023-04-13T19:33:02.505Z,6.39
2023-04-13T19:35:28.845Z,6.27
2023-04-13T19:37:55.215Z,6.36
2023-04-13T19:40:21.529Z,6.25
2023-04-13T19:42:47.822Z,6.20
2023-04-13T19:45:14.128Z,6.13
2023-04-13T19:47:40.509Z,6.01
2023-04-13T19:50:06.833Z,5.94
2023-04-13T19:52:33.133Z,5.74
2023-04-13T19:54:59.463Z,5.71
2023-04-13T19:57:25.787Z,5.63
2023-04-13T19:59:52.162Z,5.61
2023-04-13T20:02:18.742Z,5.57
2023-04-13T20:04:45.255Z,5.53
2023-04-13T20:07:11.589Z,5.49
2023-04-13T20:09:37.899Z,5.41
2023-04-13T20:12:04.197Z,5.36
2023-04-13T20:14:30.510Z,5.29
2023-04-13T20:16:56.929Z,5.23
2023-04-13T20:19:23.249Z,5.20
2023-04-13T20:21:49.562Z,5.19
2023-04-13T20:24:15.917Z,5.27
2023-04-13T20:26:42.235Z,5.34
2023-04-13T20:29:08.599Z,5.35
2023-04-13T20:31:35.008Z,5.44
2023-04-13T20:34:01.400Z,5.37
2023-04-13T20:36:28.097Z,5.27
2023-04-13T20:38:54.502Z,5.29
2023-04-13T20:41:20.852Z,5.28
2023-04-13T20:43:47.165Z,5.18
2023-04-13T20:46:13.528Z,5.20
2023-04-13T20:51:09.087Z,5.04
2023-04-13T20:53:35.412Z,4.96
2023-04-13T20:56:01.722Z,4.92
2023-04-13T20:58:28.044Z,4.89
2023-04-13T21:00:54.376Z,4.80
2023-04-13T21:03:20.906Z,4.70
2023-04-13T21:05:47.254Z,4.70
2023-04-13T21:08:13.581Z,4.64
2023-04-13T21:10:39.893Z,4.64
2023-04-13T21:13:06.224Z,4.61
2023-04-13T21:15:32.547Z,4.58
2023-04-13T21:17:58.852Z,4.62
2023-04-13T21:20:25.205Z,4.60
2023-04-13T21:22:51.529Z,4.58
2023-04-13T21:25:17.853Z,4.56
2023-04-13T21:27:44.163Z,4.53
2023-04-13T21:30:10.509Z,4.53
2023-04-13T21:32:36.841Z,4.41
2023-04-13T21:35:03.202Z,4.40
2023-04-13T21:37:29.593Z,4.40
2023-04-13T21:39:55.925Z,4.33
2023-04-13T21:42:22.802Z,4.38
2023-04-13T21:44:49.231Z,4.39
2023-04-13T21:47:15.555Z,4.50
2023-04-13T21:49:41.859Z,4.52
2023-04-13T21:52:08.161Z,4.41
2023-04-13T21:54:34.474Z,4.40
2023-04-13T21:57:00.796Z,4.35
2023-04-13T21:59:27.157Z,4.33
2023-04-13T22:01:53.572Z,4.40
2023-04-13T22:04:20.115Z,4.40
2023-04-13T22:06:46.482Z,4.49
2023-04-13T22:09:12.788Z,4.47
2023-04-13T22:11:39.115Z,4.44
2023-04-13T22:14:05.434Z,4.40
2023-04-13T22:16:31.746Z,4.40
2023-04-13T22:18:58.250Z,4.39
2023-04-13T22:21:24.837Z,4.44
2023-04-13T22:23:51.186Z,4.38
2023-04-13T22:26:17.496Z,4.40
2023-04-13T22:28:43.809Z,4.36
2023-04-13T22:31:10.145Z,4.29
2023-04-13T22:33:36.581Z,4.26
2023-04-13T22:36:02.931Z,4.14
2023-04-13T22:38:29.258Z,4.13
2023-04-13T22:40:55.593Z,4.17
2023-04-13T22:43:21.945Z,4.15
2023-04-13T22:45:48.277Z,4.10
2023-04-13T22:48:14.604Z,4.10
2023-04-13T22:50:40.918Z,4.02
2023-04-13T22:53:07.240Z,3.97
2023-04-13T22:55:33.570Z,3.87
2023-04-13T22:57:59.893Z,3.92
2023-04-13T23:00:26.236Z,3.94
2023-04-13T23:02:52.835Z,3.98
2023-04-13T23:05:19.437Z,4.02
2023-04-13T23:07:45.737Z,4.09
2023-04-13T23:10:12.046Z,4.15
2023-04-13T23:12:38.354Z,4.26
2023-04-13T23:15:04.662Z,4.28
2023-04-13T23:17:31.020Z,4.32
2023-04-13T23:19:57.441Z,4.36
2023-04-13T23:22:23.754Z,4.35
2023-04-13T23:24:50.070Z,4.34
2023-04-13T23:27:16.393Z,4.37
2023-04-13T23:29:42.718Z,4.30
2023-04-13T23:32:09.076Z,4.15
2023-04-13T23:34:35.403Z,4.05
2023-04-13T23:37:01.750Z,4.02
2023-04-13T23:39:28.046Z,4.00
2023-04-13T23:41:54.350Z,3.99
2023-04-13T23:44:20.674Z,3.93
2023-04-13T23:46:46.986Z,4.00
2023-04-13T23:49:13.314Z,4.08
2023-04-13T23:51:39.632Z,4.09
2023-04-13T23:54:05.938Z,4.14
2023-04-13T23:56:32.263Z,4.16
2023-04-13T23:58:58.728Z,4.21
